sensor_id;sensor_type;location;lat;lon;timestamp;P1;durP1;ratioP1;P2;durP2;ratioP2
61572;SDS011;47465;43.094;12.434;2023-02-28T00:00:09;5.85;;;3.10;;
61572;SDS011;47465;43.094;12.434;2023-02-28T00:02:36;5.35;;;3.03;;
61572;SDS011;47465;43.094;12.434;2023-02-28T00:05:02;5.60;;;3.50;;
61572;SDS011;47465;43.094;12.434;2023-02-28T00:07:30;4.75;;;3.03;;
61572;SDS011;47465;43.094;12.434;2023-02-28T00:09:56;6.63;;;3.30;;
61572;SDS011;47465;43.094;12.434;2023-02-28T00:12:22;6.15;;;3.40;;
61572;SDS011;47465;43.094;12.434;2023-02-28T00:14:48;5.20;;;3.20;;
61572;SDS011;47465;43.094;12.434;2023-02-28T00:17:14;6.30;;;3.25;;
61572;SDS011;47465;43.094;12.434;2023-02-28T00:19:40;5.65;;;3.10;;
61572;SDS011;47465;43.094;12.434;2023-02-28T00:22:05;6.35;;;3.50;;
61572;SDS011;47465;43.094;12.434;2023-02-28T00:24:33;6.07;;;3.53;;
61572;SDS011;47465;43.094;12.434;2023-02-28T00:26:58;6.32;;;3.75;;
61572;SDS011;47465;43.094;12.434;2023-02-28T00:29:24;8.52;;;3.45;;
61572;SDS011;47465;43.094;12.434;2023-02-28T00:31:50;8.18;;;3.90;;
61572;SDS011;47465;43.094;12.434;2023-02-28T00:34:16;7.90;;;3.47;;
61572;SDS011;47465;43.094;12.434;2023-02-28T00:36:42;6.00;;;3.47;;
61572;SDS011;47465;43.094;12.434;2023-02-28T00:39:10;5.80;;;3.40;;
61572;SDS011;47465;43.094;12.434;2023-02-28T00:41:37;6.03;;;3.63;;
61572;SDS011;47465;43.094;12.434;2023-02-28T00:44:05;5.85;;;3.75;;
61572;SDS011;47465;43.094;12.434;2023-02-28T00:46:30;5.85;;;3.60;;
61572;SDS011;47465;43.094;12.434;2023-02-28T00:48:56;6.53;;;3.42;;
61572;SDS011;47465;43.094;12.434;2023-02-28T00:51:22;7.18;;;3.58;;
61572;SDS011;47465;43.094;12.434;2023-02-28T00:53:48;6.07;;;3.35;;
61572;SDS011;47465;43.094;12.434;2023-02-28T00:56:14;7.03;;;3.60;;
61572;SDS011;47465;43.094;12.434;2023-02-28T00:58:41;6.00;;;3.78;;
61572;SDS011;47465;43.094;12.434;2023-02-28T01:01:07;6.53;;;3.22;;
61572;SDS011;47465;43.094;12.434;2023-02-28T01:03:33;5.72;;;3.97;;
61572;SDS011;47465;43.094;12.434;2023-02-28T01:05:59;6.85;;;3.33;;
61572;SDS011;47465;43.094;12.434;2023-02-28T01:08:25;5.15;;;3.28;;
61572;SDS011;47465;43.094;12.434;2023-02-28T01:10:51;6.88;;;3.80;;
61572;SDS011;47465;43.094;12.434;2023-02-28T01:13:17;5.50;;;3.38;;
61572;SDS011;47465;43.094;12.434;2023-02-28T01:15:45;8.45;;;3.78;;
61572;SDS011;47465;43.094;12.434;2023-02-28T01:18:15;6.00;;;3.65;;
61572;SDS011;47465;43.094;12.434;2023-02-28T01:20:40;6.10;;;3.67;;
61572;SDS011;47465;43.094;12.434;2023-02-28T01:23:06;6.82;;;3.70;;
61572;SDS011;47465;43.094;12.434;2023-02-28T01:25:34;7.05;;;4.35;;
61572;SDS011;47465;43.094;12.434;2023-02-28T01:28:00;6.07;;;3.88;;
61572;SDS011;47465;43.094;12.434;2023-02-28T01:30:25;6.80;;;3.92;;
61572;SDS011;47465;43.094;12.434;2023-02-28T01:32:53;6.15;;;3.53;;
61572;SDS011;47465;43.094;12.434;2023-02-28T01:35:19;5.57;;;3.60;;
61572;SDS011;47465;43.094;12.434;2023-02-28T01:37:45;7.03;;;3.50;;
61572;SDS011;47465;43.094;12.434;2023-02-28T01:40:11;5.65;;;3.20;;
61572;SDS011;47465;43.094;12.434;2023-02-28T01:42:38;5.20;;;3.40;;
61572;SDS011;47465;43.094;12.434;2023-02-28T01:45:08;7.32;;;3.22;;
61572;SDS011;47465;43.094;12.434;2023-02-28T01:47:44;6.75;;;3.22;;
61572;SDS011;47465;43.094;12.434;2023-02-28T01:50:13;5.32;;;3.20;;
61572;SDS011;47465;43.094;12.434;2023-02-28T01:52:42;5.85;;;3.20;;
61572;SDS011;47465;43.094;12.434;2023-02-28T01:55:09;5.30;;;3.50;;
61572;SDS011;47465;43.094;12.434;2023-02-28T01:57:38;5.97;;;3.58;;
61572;SDS011;47465;43.094;12.434;2023-02-28T02:00:08;5.47;;;3.25;;
61572;SDS011;47465;43.094;12.434;2023-02-28T02:02:38;7.00;;;3.35;;
61572;SDS011;47465;43.094;12.434;2023-02-28T02:05:06;7.03;;;3.70;;
61572;SDS011;47465;43.094;12.434;2023-02-28T02:07:36;5.90;;;3.05;;
61572;SDS011;47465;43.094;12.434;2023-02-28T02:10:05;6.03;;;3.33;;
61572;SDS011;47465;43.094;12.434;2023-02-28T02:12:41;5.95;;;3.33;;
61572;SDS011;47465;43.094;12.434;2023-02-28T02:15:18;6.22;;;3.50;;
61572;SDS011;47465;43.094;12.434;2023-02-28T02:17:52;5.13;;;3.42;;
61572;SDS011;47465;43.094;12.434;2023-02-28T02:20:28;5.85;;;3.47;;
61572;SDS011;47465;43.094;12.434;2023-02-28T02:23:14;5.68;;;3.20;;
61572;SDS011;47465;43.094;12.434;2023-02-28T02:25:53;5.57;;;3.53;;
61572;SDS011;47465;43.094;12.434;2023-02-28T02:28:25;6.07;;;3.30;;
61572;SDS011;47465;43.094;12.434;2023-02-28T02:31:25;7.10;;;3.10;;
61572;SDS011;47465;43.094;12.434;2023-02-28T02:34:20;6.35;;;3.10;;
61572;SDS011;47465;43.094;12.434;2023-02-28T02:36:55;6.30;;;3.50;;
61572;SDS011;47465;43.094;12.434;2023-02-28T02:39:31;5.32;;;3.33;;
61572;SDS011;47465;43.094;12.434;2023-02-28T02:42:09;5.97;;;3.65;;
61572;SDS011;47465;43.094;12.434;2023-02-28T02:44:41;6.30;;;3.50;;
61572;SDS011;47465;43.094;12.434;2023-02-28T02:47:13;6.93;;;3.72;;
61572;SDS011;47465;43.094;12.434;2023-02-28T02:52:12;5.97;;;4.00;;
61572;SDS011;47465;43.094;12.434;2023-02-28T02:54:42;4.75;;;3.30;;
61572;SDS011;47465;43.094;12.434;2023-02-28T02:57:11;5.65;;;3.50;;
61572;SDS011;47465;43.094;12.434;2023-02-28T02:59:42;5.15;;;3.15;;
61572;SDS011;47465;43.094;12.434;2023-02-28T03:02:10;5.70;;;3.15;;
61572;SDS011;47465;43.094;12.434;2023-02-28T03:04:38;6.15;;;3.28;;
61572;SDS011;47465;43.094;12.434;2023-02-28T03:07:09;5.78;;;3.15;;
61572;SDS011;47465;43.094;12.434;2023-02-28T03:09:35;5.15;;;3.40;;
61572;SDS011;47465;43.094;12.434;2023-02-28T03:12:01;4.95;;;3.20;;
61572;SDS011;47465;43.094;12.434;2023-02-28T03:14:32;5.50;;;3.20;;
61572;SDS011;47465;43.094;12.434;2023-02-28T03:17:19;4.20;;;2.88;;
61572;SDS011;47465;43.094;12.434;2023-02-28T03:19:59;5.82;;;3.10;;
61572;SDS011;47465;43.094;12.434;2023-02-28T03:22:43;5.90;;;3.65;;
61572;SDS011;47465;43.094;12.434;2023-02-28T03:25:31;4.80;;;3.03;;
61572;SDS011;47465;43.094;12.434;2023-02-28T03:28:05;5.70;;;3.53;;
61572;SDS011;47465;43.094;12.434;2023-02-28T03:30:41;4.22;;;2.83;;
61572;SDS011;47465;43.094;12.434;2023-02-28T03:33:11;5.28;;;3.00;;
61572;SDS011;47465;43.094;12.434;2023-02-28T03:35:40;6.90;;;3.40;;
61572;SDS011;47465;43.094;12.434;2023-02-28T03:38:12;4.80;;;2.70;;
61572;SDS011;47465;43.094;12.434;2023-02-28T03:40:51;5.38;;;3.00;;
61572;SDS011;47465;43.094;12.434;2023-02-28T03:43:22;5.00;;;3.20;;
61572;SDS011;47465;43.094;12.434;2023-02-28T03:45:51;5.13;;;2.90;;
61572;SDS011;47465;43.094;12.434;2023-02-28T03:48:20;4.25;;;2.83;;
61572;SDS011;47465;43.094;12.434;2023-02-28T03:50:54;4.63;;;2.63;;
61572;SDS011;47465;43.094;12.434;2023-02-28T03:53:34;4.90;;;3.25;;
61572;SDS011;47465;43.094;12.434;2023-02-28T03:56:03;5.05;;;3.28;;
61572;SDS011;47465;43.094;12.434;2023-02-28T03:58:37;6.35;;;3.35;;
61572;SDS011;47465;43.094;12.434;2023-02-28T04:01:07;4.90;;;3.22;;
61572;SDS011;47465;43.094;12.434;2023-02-28T04:03:36;5.57;;;3.15;;
61572;SDS011;47465;43.094;12.434;2023-02-28T04:06:04;4.90;;;2.80;;
61572;SDS011;47465;43.094;12.434;2023-02-28T04:08:32;4.82;;;2.80;;
61572;SDS011;47465;43.094;12.434;2023-02-28T04:11:00;4.95;;;2.95;;
61572;SDS011;47465;43.094;12.434;2023-02-28T04:13:32;6.18;;;3.30;;
61572;SDS011;47465;43.094;12.434;2023-02-28T04:15:57;5.43;;;3.03;;
61572;SDS011;47465;43.094;12.434;2023-02-28T04:18:23;5.07;;;3.15;;
61572;SDS011;47465;43.094;12.434;2023-02-28T04:20:49;6.40;;;3.20;;
61572;SDS011;47465;43.094;12.434;2023-02-28T04:23:15;5.60;;;3.28;;
61572;SDS011;47465;43.094;12.434;2023-02-28T04:25:42;5.57;;;2.80;;
61572;SDS011;47465;43.094;12.434;2023-02-28T04:28:08;5.43;;;3.20;;
61572;SDS011;47465;43.094;12.434;2023-02-28T04:30:35;5.28;;;3.05;;
61572;SDS011;47465;43.094;12.434;2023-02-28T04:33:01;5.38;;;3.00;;
61572;SDS011;47465;43.094;12.434;2023-02-28T04:35:27;5.32;;;3.40;;
61572;SDS011;47465;43.094;12.434;2023-02-28T04:37:53;5.22;;;3.10;;
61572;SDS011;47465;43.094;12.434;2023-02-28T04:40:18;5.63;;;3.10;;
61572;SDS011;47465;43.094;12.434;2023-02-28T04:42:46;8.07;;;3.33;;
61572;SDS011;47465;43.094;12.434;2023-02-28T04:45:11;5.90;;;3.33;;
61572;SDS011;47465;43.094;12.434;2023-02-28T04:47:38;4.35;;;2.47;;
61572;SDS011;47465;43.094;12.434;2023-02-28T04:50:04;5.15;;;2.85;;
61572;SDS011;47465;43.094;12.434;2023-02-28T04:52:30;4.60;;;3.00;;
61572;SDS011;47465;43.094;12.434;2023-02-28T04:54:56;6.00;;;3.00;;
61572;SDS011;47465;43.094;12.434;2023-02-28T04:57:22;5.97;;;3.08;;
61572;SDS011;47465;43.094;12.434;2023-02-28T04:59:49;4.68;;;2.90;;
61572;SDS011;47465;43.094;12.434;2023-02-28T05:02:15;4.90;;;3.17;;
61572;SDS011;47465;43.094;12.434;2023-02-28T05:04:41;6.38;;;3.05;;
61572;SDS011;47465;43.094;12.434;2023-02-28T05:07:07;7.00;;;3.28;;
61572;SDS011;47465;43.094;12.434;2023-02-28T05:09:33;5.53;;;3.08;;
61572;SDS011;47465;43.094;12.434;2023-02-28T05:11:58;4.50;;;2.97;;
61572;SDS011;47465;43.094;12.434;2023-02-28T05:14:24;5.20;;;3.17;;
61572;SDS011;47465;43.094;12.434;2023-02-28T05:16:52;6.45;;;3.25;;
61572;SDS011;47465;43.094;12.434;2023-02-28T05:19:17;7.05;;;3.00;;
61572;SDS011;47465;43.094;12.434;2023-02-28T05:21:49;5.38;;;3.10;;
61572;SDS011;47465;43.094;12.434;2023-02-28T05:24:16;4.10;;;2.50;;
61572;SDS011;47465;43.094;12.434;2023-02-28T05:26:48;4.78;;;2.90;;
61572;SDS011;47465;43.094;12.434;2023-02-28T05:29:15;5.13;;;2.80;;
61572;SDS011;47465;43.094;12.434;2023-02-28T05:31:41;5.13;;;3.10;;
61572;SDS011;47465;43.094;12.434;2023-02-28T05:34:08;4.53;;;2.60;;
61572;SDS011;47465;43.094;12.434;2023-02-28T05:36:37;6.18;;;2.90;;
61572;SDS011;47465;43.094;12.434;2023-02-28T05:39:04;4.60;;;2.97;;
61572;SDS011;47465;43.094;12.434;2023-02-28T05:41:30;4.10;;;2.50;;
61572;SDS011;47465;43.094;12.434;2023-02-28T05:43:57;5.65;;;2.85;;
61572;SDS011;47465;43.094;12.434;2023-02-28T05:46:22;3.50;;;2.47;;
61572;SDS011;47465;43.094;12.434;2023-02-28T05:48:50;5.00;;;2.80;;
61572;SDS011;47465;43.094;12.434;2023-02-28T05:51:17;4.50;;;3.20;;
61572;SDS011;47465;43.094;12.434;2023-02-28T05:53:43;4.10;;;2.67;;
61572;SDS011;47465;43.094;12.434;2023-02-28T05:56:09;5.18;;;2.88;;
61572;SDS011;47465;43.094;12.434;2023-02-28T05:58:35;4.10;;;2.60;;
61572;SDS011;47465;43.094;12.434;2023-02-28T06:03:46;5.18;;;3.25;;
61572;SDS011;47465;43.094;12.434;2023-02-28T06:06:12;4.95;;;3.03;;
61572;SDS011;47465;43.094;12.434;2023-02-28T06:08:39;4.35;;;2.70;;
61572;SDS011;47465;43.094;12.434;2023-02-28T06:11:05;4.65;;;2.88;;
61572;SDS011;47465;43.094;12.434;2023-02-28T06:13:31;6.18;;;3.55;;
61572;SDS011;47465;43.094;12.434;2023-02-28T06:16:00;3.78;;;2.55;;
61572;SDS011;47465;43.094;12.434;2023-02-28T06:18:26;4.75;;;2.90;;
61572;SDS011;47465;43.094;12.434;2023-02-28T06:20:52;5.43;;;3.28;;
61572;SDS011;47465;43.094;12.434;2023-02-28T06:23:19;4.85;;;2.97;;
61572;SDS011;47465;43.094;12.434;2023-02-28T06:25:47;5.63;;;3.00;;
61572;SDS011;47465;43.094;12.434;2023-02-28T06:28:13;5.05;;;3.28;;
61572;SDS011;47465;43.094;12.434;2023-02-28T06:30:39;5.70;;;3.50;;
61572;SDS011;47465;43.094;12.434;2023-02-28T06:33:04;5.28;;;3.70;;
61572;SDS011;47465;43.094;12.434;2023-02-28T06:35:30;5.18;;;3.05;;
61572;SDS011;47465;43.094;12.434;2023-02-28T06:37:56;6.22;;;3.45;;
61572;SDS011;47465;43.094;12.434;2023-02-28T06:40:23;5.75;;;3.70;;
61572;SDS011;47465;43.094;12.434;2023-02-28T06:42:50;4.43;;;3.05;;
61572;SDS011;47465;43.094;12.434;2023-02-28T06:45:16;5.70;;;3.25;;
61572;SDS011;47465;43.094;12.434;2023-02-28T06:47:42;6.47;;;3.55;;
61572;SDS011;47465;43.094;12.434;2023-02-28T06:50:09;5.60;;;2.92;;
61572;SDS011;47465;43.094;12.434;2023-02-28T06:52:36;4.50;;;3.15;;
61572;SDS011;47465;43.094;12.434;2023-02-28T06:55:03;4.72;;;3.17;;
61572;SDS011;47465;43.094;12.434;2023-02-28T06:57:31;3.90;;;2.47;;
61572;SDS011;47465;43.094;12.434;2023-02-28T07:00:01;4.40;;;2.92;;
61572;SDS011;47465;43.094;12.434;2023-02-28T07:02:30;4.43;;;2.60;;
61572;SDS011;47465;43.094;12.434;2023-02-28T07:04:56;4.20;;;2.50;;
61572;SDS011;47465;43.094;12.434;2023-02-28T07:07:22;3.88;;;2.63;;
61572;SDS011;47465;43.094;12.434;2023-02-28T07:09:48;4.40;;;2.70;;
61572;SDS011;47465;43.094;12.434;2023-02-28T07:12:14;4.05;;;2.28;;
61572;SDS011;47465;43.094;12.434;2023-02-28T07:14:40;4.32;;;2.63;;
61572;SDS011;47465;43.094;12.434;2023-02-28T07:17:08;3.85;;;2.35;;
61572;SDS011;47465;43.094;12.434;2023-02-28T07:19:36;3.15;;;2.10;;
61572;SDS011;47465;43.094;12.434;2023-02-28T07:22:01;3.75;;;2.22;;
61572;SDS011;47465;43.094;12.434;2023-02-28T07:24:28;3.80;;;2.60;;
61572;SDS011;47465;43.094;12.434;2023-02-28T07:26:54;3.28;;;2.10;;
61572;SDS011;47465;43.094;12.434;2023-02-28T07:29:20;2.80;;;2.10;;
61572;SDS011;47465;43.094;12.434;2023-02-28T07:31:46;3.28;;;2.22;;
61572;SDS011;47465;43.094;12.434;2023-02-28T07:34:13;5.03;;;2.42;;
61572;SDS011;47465;43.094;12.434;2023-02-28T07:36:39;3.10;;;2.00;;
61572;SDS011;47465;43.094;12.434;2023-02-28T07:39:05;4.25;;;2.22;;
61572;SDS011;47465;43.094;12.434;2023-02-28T07:41:31;4.43;;;2.33;;
61572;SDS011;47465;43.094;12.434;2023-02-28T07:43:59;3.05;;;2.10;;
61572;SDS011;47465;43.094;12.434;2023-02-28T07:46:25;4.82;;;2.40;;
61572;SDS011;47465;43.094;12.434;2023-02-28T07:48:51;3.30;;;2.30;;
61572;SDS011;47465;43.094;12.434;2023-02-28T07:51:20;2.95;;;2.10;;
61572;SDS011;47465;43.094;12.434;2023-02-28T07:53:47;4.63;;;2.40;;
61572;SDS011;47465;43.094;12.434;2023-02-28T07:56:13;5.05;;;2.33;;
61572;SDS011;47465;43.094;12.434;2023-02-28T07:58:39;4.20;;;2.28;;
61572;SDS011;47465;43.094;12.434;2023-02-28T08:01:05;4.00;;;2.30;;
61572;SDS011;47465;43.094;12.434;2023-02-28T08:03:32;4.43;;;2.45;;
61572;SDS011;47465;43.094;12.434;2023-02-28T08:05:58;4.43;;;2.47;;
61572;SDS011;47465;43.094;12.434;2023-02-28T08:08:25;4.13;;;2.55;;
61572;SDS011;47465;43.094;12.434;2023-02-28T08:10:57;3.95;;;2.42;;
61572;SDS011;47465;43.094;12.434;2023-02-28T08:13:23;4.97;;;2.50;;
61572;SDS011;47465;43.094;12.434;2023-02-28T08:15:49;3.92;;;2.50;;
61572;SDS011;47465;43.094;12.434;2023-02-28T08:18:15;3.40;;;2.30;;
61572;SDS011;47465;43.094;12.434;2023-02-28T08:20:41;3.40;;;2.30;;
61572;SDS011;47465;43.094;12.434;2023-02-28T08:23:07;3.40;;;2.15;;
61572;SDS011;47465;43.094;12.434;2023-02-28T08:25:34;4.40;;;2.45;;
61572;SDS011;47465;43.094;12.434;2023-02-28T08:28:00;4.63;;;2.58;;
61572;SDS011;47465;43.094;12.434;2023-02-28T08:33:26;4.10;;;2.90;;
61572;SDS011;47465;43.094;12.434;2023-02-28T08:35:53;4.55;;;2.70;;
61572;SDS011;47465;43.094;12.434;2023-02-28T08:38:19;3.55;;;2.08;;
61572;SDS011;47465;43.094;12.434;2023-02-28T08:40:47;4.68;;;2.60;;
61572;SDS011;47465;43.094;12.434;2023-02-28T08:43:12;5.13;;;2.53;;
61572;SDS011;47465;43.094;12.434;2023-02-28T08:45:38;3.95;;;2.25;;
61572;SDS011;47465;43.094;12.434;2023-02-28T08:48:04;4.32;;;2.50;;
61572;SDS011;47465;43.094;12.434;2023-02-28T08:50:30;3.85;;;2.47;;
61572;SDS011;47465;43.094;12.434;2023-02-28T08:52:56;3.00;;;2.10;;
61572;SDS011;47465;43.094;12.434;2023-02-28T08:55:22;3.45;;;2.47;;
61572;SDS011;47465;43.094;12.434;2023-02-28T08:57:49;3.30;;;2.22;;
61572;SDS011;47465;43.094;12.434;2023-02-28T09:00:16;3.25;;;2.10;;
61572;SDS011;47465;43.094;12.434;2023-02-28T09:02:42;4.20;;;2.50;;
61572;SDS011;47465;43.094;12.434;2023-02-28T09:05:08;3.25;;;2.20;;
61572;SDS011;47465;43.094;12.434;2023-02-28T09:07:35;3.22;;;2.03;;
61572;SDS011;47465;43.094;12.434;2023-02-28T09:10:00;3.75;;;2.30;;
61572;SDS011;47465;43.094;12.434;2023-02-28T09:12:27;3.35;;;2.10;;
61572;SDS011;47465;43.094;12.434;2023-02-28T09:14:58;3.47;;;2.00;;
61572;SDS011;47465;43.094;12.434;2023-02-28T09:17:24;3.15;;;1.98;;
61572;SDS011;47465;43.094;12.434;2023-02-28T09:19:50;2.92;;;1.80;;
61572;SDS011;47465;43.094;12.434;2023-02-28T09:22:15;3.03;;;1.92;;
61572;SDS011;47465;43.094;12.434;2023-02-28T09:24:42;1.60;;;1.50;;
61572;SDS011;47465;43.094;12.434;2023-02-28T09:27:09;2.20;;;1.70;;
61572;SDS011;47465;43.094;12.434;2023-02-28T09:29:35;2.47;;;1.80;;
61572;SDS011;47465;43.094;12.434;2023-02-28T09:32:05;2.80;;;1.80;;
61572;SDS011;47465;43.094;12.434;2023-02-28T09:34:31;2.38;;;1.70;;
61572;SDS011;47465;43.094;12.434;2023-02-28T09:36:56;2.58;;;1.70;;
61572;SDS011;47465;43.094;12.434;2023-02-28T09:39:23;2.75;;;1.80;;
61572;SDS011;47465;43.094;12.434;2023-02-28T09:41:50;3.08;;;1.77;;
61572;SDS011;47465;43.094;12.434;2023-02-28T09:44:20;2.67;;;1.92;;
61572;SDS011;47465;43.094;12.434;2023-02-28T09:46:54;2.58;;;1.80;;
61572;SDS011;47465;43.094;12.434;2023-02-28T09:49:28;2.15;;;1.80;;
61572;SDS011;47465;43.094;12.434;2023-02-28T09:51:59;3.00;;;1.80;;
61572;SDS011;47465;43.094;12.434;2023-02-28T09:54:27;2.72;;;1.80;;
61572;SDS011;47465;43.094;12.434;2023-02-28T09:56:56;2.33;;;1.80;;
61572;SDS011;47465;43.094;12.434;2023-02-28T09:59:34;2.83;;;1.80;;
61572;SDS011;47465;43.094;12.434;2023-02-28T10:02:13;2.53;;;1.80;;
61572;SDS011;47465;43.094;12.434;2023-02-28T10:04:52;2.75;;;1.90;;
61572;SDS011;47465;43.094;12.434;2023-02-28T10:07:35;2.70;;;1.90;;
61572;SDS011;47465;43.094;12.434;2023-02-28T10:10:15;2.55;;;2.10;;
61572;SDS011;47465;43.094;12.434;2023-02-28T10:12:47;4.05;;;2.17;;
61572;SDS011;47465;43.094;12.434;2023-02-28T10:15:17;3.13;;;2.65;;
61572;SDS011;47465;43.094;12.434;2023-02-28T10:17:47;3.90;;;2.43;;
61572;SDS011;47465;43.094;12.434;2023-02-28T10:20:20;3.40;;;2.28;;
61572;SDS011;47465;43.094;12.434;2023-02-28T10:22:50;3.83;;;2.70;;
61572;SDS011;47465;43.094;12.434;2023-02-28T10:25:19;3.92;;;2.50;;
61572;SDS011;47465;43.094;12.434;2023-02-28T10:27:48;3.42;;;2.40;;
61572;SDS011;47465;43.094;12.434;2023-02-28T10:30:15;2.92;;;1.90;;
61572;SDS011;47465;43.094;12.434;2023-02-28T10:32:43;2.85;;;2.00;;
61572;SDS011;47465;43.094;12.434;2023-02-28T10:35:15;3.95;;;2.10;;
61572;SDS011;47465;43.094;12.434;2023-02-28T10:37:44;2.45;;;1.88;;
61572;SDS011;47465;43.094;12.434;2023-02-28T10:40:25;3.13;;;2.00;;
61572;SDS011;47465;43.094;12.434;2023-02-28T10:42:57;2.90;;;2.10;;
61572;SDS011;47465;43.094;12.434;2023-02-28T10:45:25;2.13;;;1.73;;
61572;SDS011;47465;43.094;12.434;2023-02-28T10:47:53;3.17;;;1.80;;
61572;SDS011;47465;43.094;12.434;2023-02-28T10:53:22;2.07;;;1.60;;
61572;SDS011;47465;43.094;12.434;2023-02-28T10:56:01;3.90;;;2.10;;
61572;SDS011;47465;43.094;12.434;2023-02-28T10:58:29;2.88;;;1.90;;
61572;SDS011;47465;43.094;12.434;2023-02-28T11:00:56;3.03;;;2.00;;
61572;SDS011;47465;43.094;12.434;2023-02-28T11:03:24;3.15;;;2.00;;
61572;SDS011;47465;43.094;12.434;2023-02-28T11:05:54;3.80;;;2.17;;
61572;SDS011;47465;43.094;12.434;2023-02-28T11:08:21;2.47;;;1.80;;
61572;SDS011;47465;43.094;12.434;2023-02-28T11:10:48;3.35;;;2.10;;
61572;SDS011;47465;43.094;12.434;2023-02-28T11:13:21;4.95;;;2.50;;
61572;SDS011;47465;43.094;12.434;2023-02-28T11:15:53;3.50;;;2.13;;
61572;SDS011;47465;43.094;12.434;2023-02-28T11:18:24;4.80;;;3.15;;
61572;SDS011;47465;43.094;12.434;2023-02-28T11:20:54;3.97;;;1.98;;
61572;SDS011;47465;43.094;12.434;2023-02-28T11:23:26;2.85;;;1.85;;
61572;SDS011;47465;43.094;12.434;2023-02-28T11:25:54;3.42;;;2.40;;
61572;SDS011;47465;43.094;12.434;2023-02-28T11:28:26;3.00;;;2.13;;
61572;SDS011;47465;43.094;12.434;2023-02-28T11:31:01;3.40;;;2.35;;
61572;SDS011;47465;43.094;12.434;2023-02-28T11:33:30;4.10;;;2.58;;
61572;SDS011;47465;43.094;12.434;2023-02-28T11:35:58;3.45;;;2.38;;
61572;SDS011;47465;43.094;12.434;2023-02-28T11:38:28;3.67;;;2.38;;
61572;SDS011;47465;43.094;12.434;2023-02-28T11:41:07;4.03;;;2.58;;
61572;SDS011;47465;43.094;12.434;2023-02-28T11:43:54;4.45;;;2.53;;
61572;SDS011;47465;43.094;12.434;2023-02-28T11:46:29;3.42;;;2.15;;
61572;SDS011;47465;43.094;12.434;2023-02-28T11:49:04;4.68;;;2.60;;
61572;SDS011;47465;43.094;12.434;2023-02-28T11:51:42;3.83;;;2.55;;
61572;SDS011;47465;43.094;12.434;2023-02-28T11:54:30;4.43;;;2.65;;
61572;SDS011;47465;43.094;12.434;2023-02-28T11:57:29;4.05;;;2.80;;
61572;SDS011;47465;43.094;12.434;2023-02-28T12:00:19;5.55;;;3.67;;
61572;SDS011;47465;43.094;12.434;2023-02-28T12:03:01;4.75;;;2.85;;
61572;SDS011;47465;43.094;12.434;2023-02-28T12:05:37;6.30;;;2.88;;
61572;SDS011;47465;43.094;12.434;2023-02-28T12:08:15;4.43;;;3.05;;
61572;SDS011;47465;43.094;12.434;2023-02-28T12:10:56;4.30;;;3.08;;
61572;SDS011;47465;43.094;12.434;2023-02-28T12:13:29;5.07;;;3.20;;
61572;SDS011;47465;43.094;12.434;2023-02-28T12:19:03;7.18;;;3.53;;
61572;SDS011;47465;43.094;12.434;2023-02-28T12:21:40;5.03;;;3.25;;
61572;SDS011;47465;43.094;12.434;2023-02-28T12:24:25;4.55;;;2.90;;
61572;SDS011;47465;43.094;12.434;2023-02-28T12:27:08;5.28;;;3.50;;
61572;SDS011;47465;43.094;12.434;2023-02-28T12:29:40;4.55;;;3.03;;
61572;SDS011;47465;43.094;12.434;2023-02-28T12:32:15;4.10;;;2.88;;
61572;SDS011;47465;43.094;12.434;2023-02-28T12:34:46;5.43;;;3.20;;
61572;SDS011;47465;43.094;12.434;2023-02-28T12:37:15;7.35;;;3.55;;
61572;SDS011;47465;43.094;12.434;2023-02-28T12:39:48;5.13;;;3.35;;
61572;SDS011;47465;43.094;12.434;2023-02-28T12:42:24;4.97;;;3.30;;
61572;SDS011;47465;43.094;12.434;2023-02-28T12:44:56;5.25;;;3.30;;
61572;SDS011;47465;43.094;12.434;2023-02-28T12:47:26;5.40;;;3.05;;
61572;SDS011;47465;43.094;12.434;2023-02-28T12:49:53;4.65;;;3.08;;
61572;SDS011;47465;43.094;12.434;2023-02-28T12:52:25;5.22;;;3.17;;
61572;SDS011;47465;43.094;12.434;2023-02-28T12:55:02;6.15;;;3.80;;
61572;SDS011;47465;43.094;12.434;2023-02-28T12:57:36;7.13;;;3.45;;
61572;SDS011;47465;43.094;12.434;2023-02-28T13:00:10;4.90;;;3.17;;
61572;SDS011;47465;43.094;12.434;2023-02-28T13:09:01;6.53;;;4.18;;
61572;SDS011;47465;43.094;12.434;2023-02-28T13:11:38;5.95;;;3.47;;
61572;SDS011;47465;43.094;12.434;2023-02-28T13:14:19;6.75;;;3.88;;
61572;SDS011;47465;43.094;12.434;2023-02-28T13:16:56;6.45;;;4.10;;
61572;SDS011;47465;43.094;12.434;2023-02-28T13:19:25;6.32;;;4.15;;
61572;SDS011;47465;43.094;12.434;2023-02-28T13:21:52;6.55;;;4.53;;
61572;SDS011;47465;43.094;12.434;2023-02-28T13:24:40;6.07;;;3.75;;
61572;SDS011;47465;43.094;12.434;2023-02-28T13:30:00;6.53;;;3.55;;
61572;SDS011;47465;43.094;12.434;2023-02-28T13:35:46;8.23;;;4.78;;
61572;SDS011;47465;43.094;12.434;2023-02-28T13:44:13;7.97;;;4.05;;
61572;SDS011;47465;43.094;12.434;2023-02-28T13:49:45;6.90;;;4.68;;
61572;SDS011;47465;43.094;12.434;2023-02-28T13:52:12;14.98;;;9.55;;
61572;SDS011;47465;43.094;12.434;2023-02-28T13:54:50;8.48;;;5.32;;
61572;SDS011;47465;43.094;12.434;2023-02-28T13:57:26;8.10;;;5.13;;
61572;SDS011;47465;43.094;12.434;2023-02-28T14:00:07;9.02;;;5.03;;
61572;SDS011;47465;43.094;12.434;2023-02-28T14:02:47;7.97;;;4.80;;
61572;SDS011;47465;43.094;12.434;2023-02-28T14:05:36;8.93;;;5.05;;
61572;SDS011;47465;43.094;12.434;2023-02-28T14:08:04;9.85;;;6.00;;
61572;SDS011;47465;43.094;12.434;2023-02-28T14:13:03;8.07;;;5.22;;
61572;SDS011;47465;43.094;12.434;2023-02-28T14:15:43;9.02;;;4.95;;
61572;SDS011;47465;43.094;12.434;2023-02-28T14:18:22;8.77;;;4.53;;
61572;SDS011;47465;43.094;12.434;2023-02-28T14:20:54;5.80;;;4.07;;
61572;SDS011;47465;43.094;12.434;2023-02-28T14:23:30;8.63;;;4.80;;
61572;SDS011;47465;43.094;12.434;2023-02-28T14:26:06;12.95;;;5.30;;
61572;SDS011;47465;43.094;12.434;2023-02-28T14:28:48;10.40;;;4.65;;
61572;SDS011;47465;43.094;12.434;2023-02-28T14:31:25;6.63;;;4.15;;
61572;SDS011;47465;43.094;12.434;2023-02-28T14:34:03;6.82;;;4.35;;
61572;SDS011;47465;43.094;12.434;2023-02-28T14:36:43;9.25;;;4.70;;
61572;SDS011;47465;43.094;12.434;2023-02-28T14:39:11;7.97;;;5.07;;
61572;SDS011;47465;43.094;12.434;2023-02-28T14:44:13;7.97;;;4.65;;
61572;SDS011;47465;43.094;12.434;2023-02-28T14:46:40;8.63;;;4.20;;
61572;SDS011;47465;43.094;12.434;2023-02-28T14:49:16;7.18;;;4.70;;
61572;SDS011;47465;43.094;12.434;2023-02-28T14:51:46;8.30;;;4.63;;
61572;SDS011;47465;43.094;12.434;2023-02-28T14:54:15;8.43;;;4.90;;
61572;SDS011;47465;43.094;12.434;2023-02-28T14:56:49;9.93;;;4.88;;
61572;SDS011;47465;43.094;12.434;2023-02-28T14:59:25;8.13;;;5.03;;
61572;SDS011;47465;43.094;12.434;2023-02-28T15:04:51;8.02;;;5.00;;
61572;SDS011;47465;43.094;12.434;2023-02-28T15:07:21;7.22;;;4.47;;
61572;SDS011;47465;43.094;12.434;2023-02-28T15:10:06;8.77;;;4.50;;
61572;SDS011;47465;43.094;12.434;2023-02-28T15:12:34;11.15;;;6.65;;
61572;SDS011;47465;43.094;12.434;2023-02-28T15:15:02;8.13;;;5.20;;
61572;SDS011;47465;43.094;12.434;2023-02-28T15:17:33;10.07;;;5.05;;
61572;SDS011;47465;43.094;12.434;2023-02-28T15:20:00;8.25;;;4.85;;
61572;SDS011;47465;43.094;12.434;2023-02-28T15:22:28;7.20;;;4.95;;
61572;SDS011;47465;43.094;12.434;2023-02-28T15:25:00;7.30;;;4.82;;
61572;SDS011;47465;43.094;12.434;2023-02-28T15:27:32;9.38;;;5.35;;
61572;SDS011;47465;43.094;12.434;2023-02-28T15:30:04;7.82;;;4.93;;
61572;SDS011;47465;43.094;12.434;2023-02-28T15:32:33;8.35;;;5.40;;